createdAt,value
2023-05-10T00:01:28.385Z,12.47
2023-05-10T00:03:58.581Z,12.46
2023-05-10T00:06:31.801Z,12.45
2023-05-10T00:09:02.200Z,12.42
2023-05-10T00:11:32.406Z,12.45
2023-05-10T00:14:04.935Z,12.43
2023-05-10T00:16:37.969Z,12.35
2023-05-10T00:19:08.110Z,12.48
2023-05-10T00:21:41.022Z,12.38
2023-05-10T00:24:11.305Z,12.44
2023-05-10T00:26:42.855Z,12.45
2023-05-10T00:29:14.161Z,12.40
2023-05-10T00:31:44.058Z,12.45
2023-05-10T00:34:14.237Z,12.31
2023-05-10T00:36:46.969Z,12.43
2023-05-10T00:39:17.310Z,12.49
2023-05-10T00:41:51.425Z,12.52
2023-05-10T00:44:22.462Z,12.54
2023-05-10T00:46:53.449Z,12.55
2023-05-10T00:49:23.607Z,12.54
2023-05-10T00:51:56.535Z,12.51
2023-05-10T00:54:27.026Z,12.28
2023-05-10T00:56:58.636Z,12.48
2023-05-10T00:59:29.168Z,12.44
2023-05-10T01:02:00.013Z,12.45
2023-05-10T01:04:30.382Z,12.44
2023-05-10T01:07:03.727Z,12.34
2023-05-10T01:09:34.149Z,12.32
2023-05-10T01:12:08.142Z,12.35
2023-05-10T01:14:39.641Z,12.32
2023-05-10T01:17:12.285Z,12.34
2023-05-10T01:19:42.785Z,12.36
2023-05-10T01:22:49.195Z,12.33
2023-05-10T01:25:50.794Z,12.30
2023-05-10T01:28:41.368Z,12.34
2023-05-10T01:31:26.816Z,12.26
2023-05-10T01:34:03.500Z,12.24
2023-05-10T01:36:36.360Z,11.90
2023-05-10T01:39:17.145Z,12.21
2023-05-10T01:41:54.245Z,12.19
2023-05-10T01:44:34.352Z,12.16
2023-05-10T01:47:10.188Z,12.12
2023-05-10T01:49:49.893Z,12.13
2023-05-10T01:52:23.326Z,12.11
2023-05-10T01:54:58.119Z,11.90
2023-05-10T01:57:34.277Z,12.07
2023-05-10T02:00:07.484Z,12.07
2023-05-10T02:02:50.081Z,12.12
2023-05-10T02:05:26.158Z,12.13
2023-05-10T02:07:58.316Z,12.12
2023-05-10T02:10:29.849Z,12.11
2023-05-10T02:13:04.971Z,12.13
2023-05-10T02:15:36.262Z,12.12
2023-05-10T02:18:08.153Z,12.12
2023-05-10T02:20:43.214Z,12.09
2023-05-10T02:23:15.037Z,12.15
2023-05-10T02:25:47.263Z,12.09
2023-05-10T02:28:19.522Z,11.94
2023-05-10T02:30:51.626Z,12.03
2023-05-10T02:33:23.450Z,12.03
2023-05-10T02:35:57.439Z,12.03
2023-05-10T02:38:29.797Z,12.04
2023-05-10T02:41:01.355Z,12.02
2023-05-10T02:43:36.531Z,12.03
2023-05-10T02:46:07.589Z,11.87
2023-05-10T02:48:39.679Z,11.94
2023-05-10T02:51:13.775Z,11.78
2023-05-10T02:53:50.287Z,11.99
2023-05-10T02:56:32.955Z,11.95
2023-05-10T02:59:05.252Z,11.94
2023-05-10T03:01:37.386Z,11.94
2023-05-10T03:04:08.488Z,11.94
2023-05-10T03:06:41.551Z,11.88
2023-05-10T03:09:16.840Z,11.83
2023-05-10T03:12:00.796Z,11.83
2023-05-10T03:14:49.857Z,11.83
2023-05-10T03:17:26.689Z,11.83
2023-05-10T03:19:59.600Z,11.88
2023-05-10T03:22:36.360Z,11.87
2023-05-10T03:25:10.126Z,11.90
2023-05-10T03:27:44.154Z,11.86
2023-05-10T03:30:17.113Z,11.91
2023-05-10T03:32:47.397Z,11.95
2023-05-10T03:35:20.261Z,11.96
2023-05-10T03:37:53.124Z,11.99
2023-05-10T03:40:24.447Z,11.97
2023-05-10T03:42:54.632Z,11.99
2023-05-10T03:45:24.903Z,11.97
2023-05-10T03:47:55.628Z,11.99
2023-05-10T03:50:26.088Z,12.02
2023-05-10T03:52:59.879Z,12.05
2023-05-10T03:55:35.752Z,12.03
2023-05-10T03:58:06.321Z,12.04
2023-05-10T04:00:38.337Z,12.04
2023-05-10T04:03:08.796Z,12.01
2023-05-10T04:05:39.123Z,12.07
2023-05-10T04:08:12.833Z,12.03
2023-05-10T04:10:43.013Z,12.03
2023-05-10T04:13:13.581Z,12.13
2023-05-10T04:15:44.476Z,12.18
2023-05-10T04:18:14.652Z,12.20
2023-05-10T04:20:45.012Z,12.25
2023-05-10T04:23:18.316Z,12.11
2023-05-10T04:25:48.744Z,12.35
2023-05-10T04:28:18.867Z,12.17
2023-05-10T04:30:49.265Z,12.48
2023-05-10T04:33:19.598Z,12.48
2023-05-10T04:35:49.821Z,12.53
2023-05-10T04:38:22.725Z,12.61
2023-05-10T04:40:52.915Z,12.66
2023-05-10T04:43:23.063Z,12.69
2023-05-10T04:45:53.235Z,12.71
2023-05-10T04:48:25.186Z,12.83
2023-05-10T04:50:57.674Z,12.85
2023-05-10T04:53:30.585Z,12.90
2023-05-10T04:56:00.745Z,12.95
2023-05-10T04:58:30.955Z,12.95
2023-05-10T05:01:01.191Z,13.04
2023-05-10T05:03:31.411Z,13.08
2023-05-10T05:06:01.636Z,13.13
2023-05-10T05:08:34.397Z,13.17
2023-05-10T05:11:04.750Z,13.07
2023-05-10T05:13:35.082Z,13.20
2023-05-10T05:16:06.480Z,13.29
2023-05-10T05:18:36.727Z,13.37
2023-05-10T05:21:09.715Z,13.41
2023-05-10T05:23:42.559Z,13.33
2023-05-10T05:26:12.891Z,13.41
2023-05-10T05:28:43.147Z,13.48
2023-05-10T05:31:15.703Z,13.49
2023-05-10T05:33:46.793Z,13.49
2023-05-10T05:36:16.715Z,13.57
2023-05-10T05:38:50.385Z,13.56
2023-05-10T05:41:21.268Z,13.58
2023-05-10T05:43:51.519Z,13.62
2023-05-10T05:46:22.032Z,13.67
2023-05-10T05:48:54.674Z,13.74
2023-05-10T05:51:26.650Z,13.85
2023-05-10T05:54:00.286Z,13.99
2023-05-10T05:56:30.619Z,14.06
2023-05-10T05:59:00.819Z,14.13
2023-05-10T06:01:30.991Z,14.19
2023-05-10T06:04:04.344Z,14.24
2023-05-10T06:06:34.655Z,14.42
2023-05-10T06:09:07.665Z,14.54
2023-05-10T06:11:38.188Z,14.65
2023-05-10T06:14:09.480Z,14.70
2023-05-10T06:16:40.027Z,14.63
2023-05-10T06:19:14.090Z,14.92
2023-05-10T06:21:44.303Z,15.18
2023-05-10T06:24:17.400Z,15.34
2023-05-10T06:26:47.945Z,15.29
2023-05-10T06:29:19.615Z,15.45
2023-05-10T06:31:52.514Z,15.26
2023-05-10T06:34:22.963Z,15.21
2023-05-10T06:36:53.545Z,15.24
2023-05-10T06:39:26.496Z,15.24
2023-05-10T06:41:56.763Z,15.32
2023-05-10T06:44:29.457Z,15.29
2023-05-10T06:47:00.030Z,15.31
2023-05-10T06:49:31.756Z,15.40
2023-05-10T06:52:01.967Z,15.49
2023-05-10T06:54:34.989Z,15.57
2023-05-10T06:57:10.804Z,15.52
2023-05-10T06:59:46.889Z,15.44
2023-05-10T07:02:17.127Z,15.45
2023-05-10T07:04:47.444Z,15.45
2023-05-10T07:07:20.656Z,15.51
2023-05-10T07:09:53.911Z,15.39
2023-05-10T07:12:24.177Z,15.56
2023-05-10T07:14:54.552Z,15.61
2023-05-10T07:17:24.985Z,15.72
2023-05-10T07:19:57.473Z,15.57
2023-05-10T07:22:28.180Z,15.91
2023-05-10T07:25:01.285Z,15.98
2023-05-10T07:27:31.406Z,15.99
2023-05-10T07:30:01.830Z,16.12
2023-05-10T07:32:32.095Z,16.19
2023-05-10T07:35:02.426Z,16.27
2023-05-10T07:37:35.288Z,16.30
2023-05-10T07:40:09.894Z,16.28
2023-05-10T07:42:40.321Z,16.34
2023-05-10T07:45:12.384Z,16.36
2023-05-10T07:47:44.029Z,16.48
2023-05-10T07:50:16.780Z,16.54
2023-05-10T07:52:47.484Z,16.61
2023-05-10T07:55:22.525Z,16.51
2023-05-10T07:57:53.011Z,16.57
2023-05-10T08:00:25.404Z,16.71
2023-05-10T08:02:55.756Z,16.56
2023-05-10T08:05:26.046Z,16.64
2023-05-10T08:07:56.301Z,16.75
2023-05-10T08:10:29.691Z,16.78
2023-05-10T08:13:00.865Z,16.88
2023-05-10T08:15:33.571Z,16.91
2023-05-10T08:18:03.811Z,16.94
2023-05-10T08:20:34.126Z,17.05
2023-05-10T08:23:04.484Z,17.07
2023-05-10T08:25:37.921Z,17.15
2023-05-10T08:28:09.965Z,17.30
2023-05-10T08:30:42.631Z,17.28
2023-05-10T08:33:13.344Z,17.30
2023-05-10T08:35:43.935Z,17.34
2023-05-10T08:38:15.465Z,17.42
2023-05-10T08:40:49.947Z,17.58
2023-05-10T08:43:21.353Z,17.51
2023-05-10T08:45:54.532Z,17.56
2023-05-10T08:48:27.642Z,17.54
2023-05-10T08:51:00.040Z,17.64
2023-05-10T08:53:33.154Z,17.90
2023-05-10T08:56:06.625Z,17.80
2023-05-10T08:58:38.011Z,17.93
2023-05-10T09:01:09.698Z,17.95
2023-05-10T09:03:46.089Z,18.09
2023-05-10T09:06:17.230Z,18.19
2023-05-10T09:08:48.931Z,18.13
2023-05-10T09:11:22.105Z,18.06
2023-05-10T09:13:56.586Z,18.27
2023-05-10T09:16:27.998Z,18.42
2023-05-10T09:18:58.178Z,18.48
2023-05-10T09:21:29.364Z,18.42
2023-05-10T09:23:59.473Z,18.44
2023-05-10T09:26:32.768Z,18.44
2023-05-10T09:29:04.723Z,18.55
2023-05-10T09:31:56.095Z,18.54
2023-05-10T09:34:36.085Z,18.49
2023-05-10T09:37:07.476Z,18.52
2023-05-10T09:39:39.291Z,18.67
2023-05-10T09:42:13.630Z,18.62
2023-05-10T09:44:44.874Z,18.65
2023-05-10T09:47:21.586Z,18.55
2023-05-10T09:49:54.178Z,18.81
2023-05-10T09:52:24.667Z,18.64
2023-05-10T09:54:58.463Z,18.85
2023-05-10T09:57:32.360Z,18.80
2023-05-10T10:00:06.301Z,18.95
2023-05-10T10:02:43.958Z,19.01
2023-05-10T10:05:16.434Z,19.19
2023-05-10T10:07:47.484Z,19.42
2023-05-10T10:10:17.444Z,19.48
2023-05-10T10:12:52.796Z,19.51
2023-05-10T10:15:26.987Z,19.71
2023-05-10T10:17:58.610Z,19.81
2023-05-10T10:20:29.439Z,19.81
2023-05-10T10:22:59.588Z,19.87
2023-05-10T10:25:30.189Z,19.79
2023-05-10T10:28:28.438Z,19.89
2023-05-10T10:31:04.394Z,19.95
2023-05-10T10:33:55.752Z,19.88
2023-05-10T10:36:28.369Z,20.23
2023-05-10T10:39:06.034Z,20.41
2023-05-10T10:41:38.326Z,20.40
2023-05-10T10:44:30.933Z,20.29
2023-05-10T10:47:20.061Z,20.41
2023-05-10T10:49:55.006Z,20.53
2023-05-10T10:52:31.176Z,20.56
2023-05-10T10:55:06.577Z,20.53
2023-05-10T10:57:46.688Z,20.62
2023-05-10T11:00:35.167Z,20.59
2023-05-10T11:03:10.708Z,20.65
2023-05-10T11:05:44.533Z,20.71
2023-05-10T11:08:33.708Z,20.72
2023-05-10T11:11:13.426Z,20.85
2023-05-10T11:13:45.863Z,20.89
2023-05-10T11:16:22.147Z,20.73
2023-05-10T11:19:08.183Z,21.09
2023-05-10T11:21:49.773Z,21.17
2023-05-10T11:24:22.300Z,21.30
2023-05-10T11:26:55.167Z,21.25
2023-05-10T11:29:27.502Z,21.27
2023-05-10T11:32:02.623Z,21.28
2023-05-10T11:34:34.973Z,21.38
2023-05-10T11:37:05.508Z,21.47
2023-05-10T11:39:36.476Z,21.60
2023-05-10T11:42:06.530Z,21.60
2023-05-10T11:44:37.202Z,21.63
2023-05-10T11:47:10.393Z,21.93
2023-05-10T11:49:40.718Z,22.01
2023-05-10T11:52:12.994Z,22.04
2023-05-10T11:54:50.152Z,22.05
2023-05-10T11:57:20.329Z,22.10
2023-05-10T11:59:53.113Z,22.13
2023-05-10T12:02:26.223Z,22.09
2023-05-10T12:04:57.038Z,22.20
2023-05-10T12:07:27.299Z,22.32
2023-05-10T12:10:10.716Z,22.43
2023-05-10T12:12:45.949Z,22.50
2023-05-10T12:15:22.712Z,22.59
2023-05-10T12:17:56.052Z,22.66
2023-05-10T12:20:28.076Z,22.59
2023-05-10T12:23:00.774Z,22.63
2023-05-10T12:25:35.218Z,22.77
2023-05-10T12:28:09.641Z,22.78
2023-05-10T12:30:40.770Z,22.87
2023-05-10T12:33:21.593Z,22.79
2023-05-10T12:35:52.462Z,22.86
2023-05-10T12:38:32.522Z,22.72
2023-05-10T12:41:07.267Z,22.63
2023-05-10T12:43:38.629Z,22.68
2023-05-10T12:46:10.226Z,23.01
2023-05-10T12:48:44.412Z,23.05
2023-05-10T12:51:18.444Z,23.13
2023-05-10T12:53:49.762Z,23.18
2023-05-10T12:56:20.357Z,23.09
2023-05-10T12:58:50.586Z,23.06
2023-05-10T13:01:20.916Z,23.20
2023-05-10T13:03:55.529Z,23.25
2023-05-10T13:06:26.026Z,23.27
2023-05-10T13:08:56.447Z,23.39
2023-05-10T13:11:26.886Z,23.49
2023-05-10T13:13:57.308Z,23.29
2023-05-10T13:16:28.040Z,23.30
2023-05-10T13:19:02.060Z,23.30
2023-05-10T13:21:35.494Z,23.10
2023-05-10T13:24:06.914Z,23.33
2023-05-10T13:26:37.569Z,23.28
2023-05-10T13:29:08.121Z,23.42
2023-05-10T13:31:39.381Z,23.47
2023-05-10T13:34:12.747Z,23.49
2023-05-10T13:36:43.311Z,23.64
2023-05-10T13:39:13.536Z,23.73
2023-05-10T13:41:44.083Z,23.59
2023-05-10T13:44:17.756Z,23.51
2023-05-10T13:46:50.444Z,23.40
2023-05-10T13:49:23.637Z,23.50
2023-05-10T13:51:53.936Z,23.64
2023-05-10T13:54:24.475Z,23.60
2023-05-10T13:56:54.956Z,23.43
2023-05-10T13:59:25.693Z,23.77
2023-05-10T14:01:57.592Z,23.66
2023-05-10T14:04:36.264Z,23.83
2023-05-10T14:07:06.744Z,24.03
2023-05-10T14:09:37.390Z,24.07
2023-05-10T14:12:09.598Z,24.34
2023-05-10T14:14:40.378Z,24.25
2023-05-10T14:17:12.387Z,24.16
2023-05-10T14:19:45.562Z,24.24
2023-05-10T14:22:20.084Z,24.27
2023-05-10T14:24:50.523Z,24.12
2023-05-10T14:27:20.974Z,24.27
2023-05-10T14:29:54.418Z,24.14
2023-05-10T14:32:24.682Z,24.08
2023-05-10T14:34:59.186Z,23.87
2023-05-10T14:37:29.362Z,23.80
2023-05-10T14:39:59.752Z,23.69
2023-05-10T14:42:30.107Z,23.53
2023-05-10T14:45:00.267Z,23.28
2023-05-10T14:47:30.569Z,22.99
2023-05-10T14:50:03.337Z,22.81
2023-05-10T14:52:34.610Z,22.60
2023-05-10T14:55:05.336Z,22.33
2023-05-10T14:57:35.582Z,22.31
2023-05-10T15:00:06.272Z,22.22
2023-05-10T15:02:37.882Z,22.05
2023-05-10T15:05:15.418Z,21.89
2023-05-10T15:07:46.842Z,21.76
2023-05-10T15:10:17.002Z,21.58
2023-05-10T15:12:47.469Z,21.49
2023-05-10T15:15:17.792Z,21.41
2023-05-10T15:17:48.637Z,21.21
2023-05-10T15:20:22.000Z,21.25
2023-05-10T15:22:52.462Z,21.15
2023-05-10T15:25:24.926Z,21.06
2023-05-10T15:27:55.068Z,21.00
2023-05-10T15:30:25.581Z,20.99
2023-05-10T15:32:56.280Z,20.88
2023-05-10T15:35:30.070Z,20.81
2023-05-10T15:38:00.473Z,20.84
2023-05-10T15:40:30.766Z,20.72
2023-05-10T15:43:00.982Z,20.60
2023-05-10T15:45:31.436Z,20.60
2023-05-10T15:48:04.217Z,20.55
2023-05-10T15:50:38.383Z,20.45
2023-05-10T15:53:08.601Z,20.47
2023-05-10T15:55:38.816Z,20.49
2023-05-10T15:58:09.056Z,20.40
2023-05-10T16:00:39.384Z,20.42
2023-05-10T16:03:10.018Z,20.26
2023-05-10T16:05:42.909Z,20.52
2023-05-10T16:08:13.158Z,20.49
2023-05-10T16:10:43.500Z,20.53
2023-05-10T16:13:15.360Z,20.47
2023-05-10T16:15:45.684Z,20.40
2023-05-10T16:18:20.342Z,20.40
2023-05-10T16:20:53.571Z,20.19
2023-05-10T16:23:24.122Z,20.35
2023-05-10T16:25:55.198Z,20.23
2023-05-10T16:28:25.508Z,20.07
2023-05-10T16:30:56.859Z,19.89
2023-05-10T16:33:27.243Z,19.82
2023-05-10T16:36:00.366Z,19.70
2023-05-10T16:38:30.617Z,19.66
2023-05-10T16:41:01.076Z,19.27
2023-05-10T16:43:31.286Z,19.28
2023-05-10T16:46:01.914Z,19.40
2023-05-10T16:48:34.483Z,19.33
2023-05-10T16:51:09.513Z,19.05
2023-05-10T16:53:40.067Z,19.21
2023-05-10T16:56:10.915Z,19.18
2023-05-10T16:58:41.114Z,19.05
2023-05-10T17:01:15.766Z,19.21
2023-05-10T17:03:48.717Z,19.15
2023-05-10T17:06:21.743Z,19.08
2023-05-10T17:08:52.065Z,19.08
2023-05-10T17:11:25.170Z,19.09
2023-05-10T17:13:55.526Z,19.03
2023-05-10T17:16:26.286Z,19.02
2023-05-10T17:18:57.124Z,18.91
2023-05-10T17:21:29.875Z,18.76
2023-05-10T17:24:00.370Z,18.44
2023-05-10T17:26:31.161Z,18.49
2023-05-10T17:29:01.790Z,18.49
2023-05-10T17:31:34.580Z,18.46
2023-05-10T17:34:05.741Z,18.12
2023-05-10T17:36:39.268Z,18.34
2023-05-10T17:39:09.598Z,18.33
2023-05-10T17:41:39.913Z,18.31
2023-05-10T17:44:11.047Z,18.06
2023-05-10T17:46:43.795Z,18.21
2023-05-10T17:49:14.161Z,18.15
2023-05-10T17:51:49.833Z,18.15
2023-05-10T17:54:22.562Z,18.07
2023-05-10T17:56:53.127Z,18.08
2023-05-10T17:59:23.671Z,17.98
2023-05-10T18:01:54.229Z,17.93
2023-05-10T18:04:25.244Z,17.80
2023-05-10T18:07:01.888Z,17.99
2023-05-10T18:09:34.492Z,17.73
2023-05-10T18:12:06.444Z,17.94
2023-05-10T18:14:41.200Z,18.01
2023-05-10T18:17:14.058Z,18.05
2023-05-10T18:19:45.081Z,18.08
2023-05-10T18:22:18.077Z,18.11
2023-05-10T18:24:49.150Z,18.02
2023-05-10T18:27:19.736Z,17.96
2023-05-10T18:29:50.059Z,18.08
2023-05-10T18:32:21.611Z,18.16
2023-05-10T18:34:55.991Z,18.30
2023-05-10T18:37:28.833Z,18.48
2023-05-10T18:40:01.724Z,18.64
2023-05-10T18:42:32.901Z,18.72
2023-05-10T18:45:03.772Z,18.74
2023-05-10T18:47:34.221Z,18.79
2023-05-10T18:50:07.201Z,18.60
2023-05-10T18:52:43.533Z,18.82
2023-05-10T18:55:14.325Z,18.90
2023-05-10T18:57:45.434Z,19.03
2023-05-10T19:00:16.101Z,19.11
2023-05-10T19:02:47.143Z,19.12
2023-05-10T19:05:18.140Z,19.10
2023-05-10T19:07:53.124Z,19.14
2023-05-10T19:10:23.512Z,19.15
2023-05-10T19:12:57.518Z,19.07
2023-05-10T19:15:27.734Z,19.14
2023-05-10T19:17:58.756Z,19.20
2023-05-10T19:20:29.818Z,19.18
2023-05-10T19:23:09.777Z,19.14
2023-05-10T19:25:43.370Z,19.14
2023-05-10T19:28:15.992Z,19.20
2023-05-10T19:30:49.873Z,19.17
2023-05-10T19:33:21.321Z,19.12
2023-05-10T19:35:53.520Z,19.07
2023-05-10T19:38:29.226Z,18.91
2023-05-10T19:41:00.652Z,18.96
2023-05-10T19:43:34.249Z,18.99
2023-05-10T19:46:05.385Z,18.89
2023-05-10T19:48:35.370Z,18.80
2023-05-10T19:51:10.142Z,18.68
2023-05-10T19:53:45.124Z,18.58
2023-05-10T19:56:18.492Z,18.44
2023-05-10T19:58:50.734Z,18.35
2023-05-10T20:01:21.307Z,18.13
2023-05-10T20:03:52.033Z,17.89
2023-05-10T20:06:22.534Z,17.76
2023-05-10T20:08:55.526Z,17.64
2023-05-10T20:11:25.815Z,17.60
2023-05-10T20:13:57.481Z,17.58
2023-05-10T20:16:27.871Z,17.54
2023-05-10T20:18:58.658Z,17.44
2023-05-10T20:21:29.669Z,17.38
2023-05-10T20:24:02.944Z,17.38
2023-05-10T20:26:36.014Z,17.19
2023-05-10T20:29:07.253Z,17.28
2023-05-10T20:31:37.463Z,17.20
2023-05-10T20:34:08.041Z,17.10
2023-05-10T20:36:38.517Z,17.12
2023-05-10T20:39:12.188Z,17.06
2023-05-10T20:41:42.902Z,17.04
2023-05-10T20:44:13.282Z,16.96
2023-05-10T20:46:43.755Z,16.91
2023-05-10T20:49:17.840Z,16.91
2023-05-10T20:51:48.149Z,16.98
2023-05-10T20:54:22.267Z,16.90
2023-05-10T20:56:52.744Z,16.70
2023-05-10T20:59:23.030Z,16.87
2023-05-10T21:01:56.509Z,16.89
2023-05-10T21:04:26.696Z,16.86
2023-05-10T21:06:57.267Z,16.77
2023-05-10T21:09:32.448Z,16.60
2023-05-10T21:12:03.528Z,16.75
2023-05-10T21:14:33.450Z,16.74
2023-05-10T21:17:03.875Z,16.79
2023-05-10T21:19:34.129Z,16.70
2023-05-10T21:22:04.357Z,16.76
2023-05-10T21:24:39.572Z,16.70
2023-05-10T21:27:10.264Z,16.70
2023-05-10T21:29:40.754Z,16.64
2023-05-10T21:32:11.342Z,16.69
2023-05-10T21:34:42.106Z,16.64
2023-05-10T21:37:14.518Z,16.60
2023-05-10T21:39:48.594Z,16.55
2023-05-10T21:42:18.817Z,16.53
2023-05-10T21:44:52.021Z,16.53
2023-05-10T21:47:22.369Z,16.53
2023-05-10T21:49:56.169Z,16.49
2023-05-10T21:52:27.214Z,16.42
2023-05-10T21:54:59.653Z,16.48
2023-05-10T21:57:30.207Z,16.37
2023-05-10T22:00:00.434Z,16.37
2023-05-10T22:02:31.032Z,16.22
2023-05-10T22:05:01.514Z,16.30
2023-05-10T22:07:34.059Z,16.29
2023-05-10T22:10:07.341Z,16.29
2023-05-10T22:12:37.526Z,16.23
2023-05-10T22:15:10.955Z,16.21
2023-05-10T22:17:42.845Z,16.21
2023-05-10T22:20:13.253Z,16.20
2023-05-10T22:22:43.492Z,16.12
2023-05-10T22:25:16.282Z,16.05
2023-05-10T22:27:46.439Z,16.01
2023-05-10T22:30:17.252Z,15.99
2023-05-10T22:32:48.209Z,15.96
2023-05-10T22:35:19.708Z,15.97
2023-05-10T22:37:50.143Z,15.91
2023-05-10T22:40:23.735Z,15.86
2023-05-10T22:42:53.962Z,15.78
2023-05-10T22:45:24.395Z,15.71
2023-05-10T22:47:55.991Z,15.65
2023-05-10T22:50:32.510Z,15.49
2023-05-10T22:53:02.694Z,15.44
2023-05-10T22:55:36.761Z,15.48
2023-05-10T22:58:07.149Z,15.59
2023-05-10T23:00:38.696Z,15.54
2023-05-10T23:03:09.512Z,15.47
2023-05-10T23:05:39.663Z,15.36
2023-05-10T23:08:09.897Z,15.31
2023-05-10T23:10:42.990Z,15.44
2023-05-10T23:13:15.229Z,15.41
2023-05-10T23:15:45.473Z,15.35
2023-05-10T23:18:15.863Z,15.31
2023-05-10T23:20:46.339Z,15.26
2023-05-10T23:23:17.011Z,15.27
2023-05-10T23:25:49.771Z,15.12
2023-05-10T23:28:20.276Z,15.19
2023-05-10T23:30:57.756Z,15.16
2023-05-10T23:33:28.857Z,15.09
2023-05-10T23:35:58.725Z,15.14
2023-05-10T23:38:29.141Z,15.11
2023-05-10T23:41:01.907Z,15.01
2023-05-10T23:43:32.122Z,15.05
2023-05-10T23:46:02.438Z,15.00
2023-05-10T23:48:32.688Z,15.09
2023-05-10T23:51:03.064Z,15.15
2023-05-10T23:53:33.331Z,15.09
2023-05-10T23:56:07.686Z,14.94
2023-05-10T23:58:38.901Z,15.09
